Time;durP1;ratioP1;P1;durP2;ratioP2;P2;SDS_P1;SDS_P2;PMS_P1;PMS_P2;Temp;Humidity;BMP_temperature;BMP_pressure;BME280_temperature;BME280_humidity;BME280_pressure;Samples;Min_cycle;Max_cycle;Signal;HPM_P1;HPM_P2
2021/05/06 00:32:41;;;;;;;;;;;;;;;8.09;100.00;99744.57;1814462;79;20425;-76
2021/05/06 00:35:09;;;;;;;;;;;;;;;8.05;100.00;99746.75;1814500;79;20485;-75
2021/05/06 00:40:10;;;;;;;;;;;;;;;7.94;100.00;99738.45;1770444;81;20152;-75
2021/05/06 01:06:27;;;;;;;;;;;;;;;7.41;100.00;99732.79;1855974;77;20216;-76
2021/05/06 01:11:45;;;;;;;;;;;;;;;7.30;100.00;99729.86;1737617;81;20209;-75
2021/05/06 01:41:03;;;;;;;;;;;;;;;6.98;100.00;99732.64;1757008;82;20148;-76
2021/05/06 01:59:50;;;;;;;;;;;;;;;6.92;100.00;99723.00;1757259;81;20261;-76
2021/05/06 02:02:15;;;;;;;;;;;;;;;6.91;100.00;99723.52;1753569;82;20144;-76
2021/05/06 02:04:44;;;;;;;;;;;;;;;6.90;100.00;99729.05;1755808;80;20148;-76
2021/05/06 02:07:12;;;;;;;;;;;;;;;6.88;100.00;99731.88;1751277;80;20247;-74
2021/05/06 02:09:45;;;;;;;;;;;;;;;6.88;100.00;99731.05;1781466;80;20190;-76
2021/05/06 02:12:15;;;;;;;;;;;;;;;6.83;100.00;99728.33;1785621;80;20155;-76
2021/05/06 02:17:14;;;;;;;;;;;;;;;6.75;100.00;99736.81;1722353;83;20153;-76
2021/05/06 02:19:47;;;;;;;;;;;;;;;6.70;100.00;99727.86;1722424;83;20264;-76
2021/05/06 02:22:15;;;;;;;;;;;;;;;6.67;100.00;99733.53;1698485;83;20216;-76
2021/05/06 02:24:44;;;;;;;;;;;;;;;6.64;100.00;99735.20;1722521;83;20203;-75
2021/05/06 02:27:11;;;;;;;;;;;;;;;6.61;100.00;99738.19;1722993;83;20157;-75
2021/05/06 02:29:39;;;;;;;;;;;;;;;6.59;100.00;99727.59;1724132;83;20179;-75
2021/05/06 02:32:07;;;;;;;;;;;;;;;6.59;100.00;99734.81;1724549;83;20176;-75
2021/05/06 02:34:36;;;;;;;;;;;;;;;6.60;100.00;99733.80;1724821;81;20125;-76
2021/05/06 02:37:04;;;;;;;;;;;;;;;6.60;100.00;99739.17;1725093;83;20203;-80
2021/05/06 02:39:32;;;;;;;;;;;;;;;6.61;100.00;99738.19;1724084;83;20220;-77
2021/05/06 02:42:00;;;;;;;;;;;;;;;6.64;100.00;99739.23;1724248;83;20271;-76
2021/05/06 02:44:27;;;;;;;;;;;;;;;6.67;100.00;99743.45;1722007;82;20207;-77
2021/05/06 02:46:56;;;;;;;;;;;;;;;6.70;100.00;99732.41;1722261;83;20157;-76
2021/05/06 02:49:24;;;;;;;;;;;;;;;6.74;100.00;99732.42;1722135;83;20160;-76
2021/05/06 02:51:55;;;;;;;;;;;;;;;6.78;100.00;99736.01;1722205;83;20148;-75
2021/05/06 02:54:22;;;;;;;;;;;;;;;6.82;100.00;99723.94;1722158;83;20156;-76
2021/05/06 02:56:59;;;;;;;;;;;;;;;6.86;100.00;99723.13;1722119;83;20176;-75
2021/05/06 03:04:46;;;;;;;;;;;;;;;6.97;100.00;99724.22;1719204;83;20446;-76
2021/05/06 03:07:21;;;;;;;;;;;;;;;7.01;100.00;99723.41;1685065;85;20265;-77
2021/05/06 03:23:15;;;;;;;;;;;;;;;7.35;100.00;99701.16;1819908;77;20195;-76
2021/05/06 03:25:43;;;;;;;;;;;;;;;7.41;100.00;99705.89;1830730;78;20133;-76
2021/05/06 03:28:14;;;;;;;;;;;;;;;7.53;100.00;99700.58;1830703;78;20133;-75
2021/05/06 03:41:54;;;;;;;;;;;;;;;8.11;100.00;99687.34;1779449;81;20135;-75
2021/05/06 03:50:16;;;;;;;;;;;;;;;8.32;100.00;99684.20;1779613;81;20274;-76
2021/05/06 04:27:22;;;;;;;;;;;;;;;9.59;100.00;99669.34;1729840;83;20310;-76
2021/05/06 04:35:39;;;;;;;;;;;;;;;9.99;100.00;99666.66;1729310;83;20151;-76
2021/05/06 04:38:08;;;;;;;;;;;;;;;10.16;100.00;99666.05;1729337;83;20262;-76
2021/05/06 04:44:16;;;;;;;;;;;;;;;10.57;100.00;99664.46;1729534;83;20168;-78
2021/05/06 05:04:48;;;;;;;;;;;;;;;12.01;100.00;99679.31;1826314;79;20163;-77
2021/05/06 05:07:20;;;;;;;;;;;;;;;12.12;100.00;99676.11;1826055;79;20164;-78
2021/05/06 05:17:37;;;;;;;;;;;;;;;12.35;100.00;99677.31;1825493;79;20140;-75
2021/05/06 05:27:58;;;;;;;;;;;;;;;13.19;100.00;99663.08;1699994;84;20264;-76
2021/05/06 05:30:28;;;;;;;;;;;;;;;13.37;100.00;99661.75;1730996;83;20299;-79
2021/05/06 05:32:57;;;;;;;;;;;;;;;13.55;100.00;99670.23;1700012;84;20146;-76
2021/05/06 05:38:08;;;;;;;;;;;;;;;13.65;100.00;99668.01;1684635;84;20158;-77
2021/05/06 05:56:53;;;;;;;;;;;;;;;14.99;100.00;99628.95;1809855;77;20142;-72
2021/05/06 05:59:21;;;;;;;;;;;;;;;15.24;100.00;99641.39;1803893;77;20193;-76
2021/05/06 06:01:50;;;;;;;;;;;;;;;15.26;100.00;99634.38;1802393;79;20423;-74
2021/05/06 06:04:18;;;;;;;;;;;;;;;15.22;100.00;99625.79;1785564;80;20300;-73
2021/05/06 06:06:46;;;;;;;;;;;;;;;15.28;100.00;99627.69;1787617;80;20169;-72
2021/05/06 06:09:14;;;;;;;;;;;;;;;15.35;100.00;99629.02;1797464;79;20131;-72
2021/05/06 06:11:42;;;;;;;;;;;;;;;15.42;100.00;99626.28;1804201;79;20187;-72
2021/05/06 06:14:09;;;;;;;;;;;;;;;15.36;100.00;99615.72;1804291;79;20139;-74
2021/05/06 06:16:40;;;;;;;;;;;;;;;15.27;100.00;99624.63;1801201;79;20261;-81
2021/05/06 06:19:07;;;;;;;;;;;;;;;15.33;100.00;99624.30;1796535;79;20316;-73
2021/05/06 06:24:08;;;;;;;;;;;;;;;15.46;100.00;99626.19;1794128;78;20197;-75
2021/05/06 06:26:36;;;;;;;;;;;;;;;15.42;100.00;99618.11;1814116;78;20540;-74
2021/05/06 06:29:13;;;;;;;;;;;;;;;15.42;100.00;99618.11;1813644;79;20409;-76
2021/05/06 06:31:48;;;;;;;;;;;;;;;15.52;100.00;99617.14;1806931;79;20183;-79
2021/05/06 06:34:15;;;;;;;;;;;;;;;15.70;100.00;99609.64;1795862;79;20397;-80
2021/05/06 06:39:14;;;;;;;;;;;;;;;16.03;100.00;99604.09;1673438;85;20198;-76
2021/05/06 06:41:44;;;;;;;;;;;;;;;16.11;100.00;99612.03;1688323;84;20317;-75
2021/05/06 06:44:14;;;;;;;;;;;;;;;16.20;100.00;99603.57;1689532;84;20146;-77
2021/05/06 06:46:42;;;;;;;;;;;;;;;16.16;100.00;99596.36;1690942;85;20201;-76
2021/05/06 06:49:10;;;;;;;;;;;;;;;16.10;100.00;99602.16;1687671;84;20504;-77
2021/05/06 06:51:39;;;;;;;;;;;;;;;16.21;100.00;99602.53;1687235;84;20197;-76
2021/05/06 06:54:09;;;;;;;;;;;;;;;16.35;100.00;99610.11;1692374;83;20249;-71
2021/05/06 06:56:36;;;;;;;;;;;;;;;16.37;100.00;99596.55;1689768;82;20309;-73
2021/05/06 06:59:04;;;;;;;;;;;;;;;16.27;100.00;99598.91;1655105;85;20171;-74
2021/05/06 07:01:32;;;;;;;;;;;;;;;16.32;100.00;99606.77;1681484;84;20225;-73
2021/05/06 07:04:00;;;;;;;;;;;;;;;16.41;100.00;99610.05;1682931;85;20156;-82
2021/05/06 07:06:28;;;;;;;;;;;;;;;16.60;100.00;99615.61;1666320;84;20264;-77
2021/05/06 07:08:56;;;;;;;;;;;;;;;16.76;100.00;99606.87;1669664;85;20290;-77
2021/05/06 07:11:23;;;;;;;;;;;;;;;16.95;100.00;99615.17;1676357;84;20146;-75
2021/05/06 07:13:51;;;;;;;;;;;;;;;17.06;100.00;99614.42;1677077;85;20250;-75
2021/05/06 07:16:18;;;;;;;;;;;;;;;17.31;100.00;99602.64;1683653;85;20265;-77
2021/05/06 07:18:48;;;;;;;;;;;;;;;17.46;99.10;99605.31;1656975;86;20155;-78
2021/05/06 07:21:22;;;;;;;;;;;;;;;17.40;100.00;99615.77;1672120;85;20163;-76
2021/05/06 07:23:54;;;;;;;;;;;;;;;17.42;100.00;99597.78;1666655;85;20217;-75
2021/05/06 07:26:25;;;;;;;;;;;;;;;17.39;99.61;99611.92;1686190;85;20183;-77
2021/05/06 07:28:54;;;;;;;;;;;;;;;17.50;100.00;99600.22;1692094;83;20167;-81
2021/05/06 07:31:24;;;;;;;;;;;;;;;17.67;99.72;99601.83;1684958;85;20563;-78
2021/05/06 07:33:53;;;;;;;;;;;;;;;17.84;98.25;99591.92;1686021;85;20546;-77
2021/05/06 07:36:23;;;;;;;;;;;;;;;18.05;97.17;99599.92;1692467;84;20157;-77
2021/05/06 07:38:52;;;;;;;;;;;;;;;18.25;94.40;99605.11;1709240;84;20137;-77
2021/05/06 07:41:22;;;;;;;;;;;;;;;18.17;94.30;99598.07;1738912;82;20452;-79
2021/05/06 07:43:51;;;;;;;;;;;;;;;18.27;95.05;99597.50;1746539;82;20124;-75
2021/05/06 07:46:21;;;;;;;;;;;;;;;18.40;94.75;99585.83;1757477;81;20394;-77
2021/05/06 07:48:51;;;;;;;;;;;;;;;18.57;90.78;99583.27;1745441;81;20244;-76
2021/05/06 07:51:21;;;;;;;;;;;;;;;18.74;84.68;99592.16;1739966;81;20136;-77
2021/05/06 07:53:52;;;;;;;;;;;;;;;18.73;87.18;99583.12;1746449;81;20183;-80
2021/05/06 07:56:22;;;;;;;;;;;;;;;18.81;89.60;99581.92;1742593;81;20139;-76
2021/05/06 07:58:49;;;;;;;;;;;;;;;19.05;87.41;99575.11;1753562;81;20124;-79
2021/05/06 08:01:17;;;;;;;;;;;;;;;19.26;85.28;99572.31;1722088;82;20266;-76
2021/05/06 08:03:45;;;;;;;;;;;;;;;19.48;82.55;99573.36;1755616;81;20412;-78
2021/05/06 08:06:14;;;;;;;;;;;;;;;19.51;80.02;99565.18;1747858;81;20139;-78
2021/05/06 08:08:43;;;;;;;;;;;;;;;19.51;79.02;99556.44;1746331;81;20161;-76
2021/05/06 08:11:10;;;;;;;;;;;;;;;19.67;78.14;99556.73;1750730;81;20175;-76
2021/05/06 08:13:40;;;;;;;;;;;;;;;19.78;74.88;99563.30;1748073;81;20153;-75
2021/05/06 08:16:09;;;;;;;;;;;;;;;19.79;75.00;99549.34;1768648;80;20131;-79
2021/05/06 08:18:37;;;;;;;;;;;;;;;19.90;71.23;99550.38;1744451;80;20457;-77
2021/05/06 08:21:06;;;;;;;;;;;;;;;19.90;69.38;99544.88;1735302;81;20127;-79
2021/05/06 08:23:35;;;;;;;;;;;;;;;19.85;74.69;99549.75;1768648;80;20197;-78
2021/05/06 08:26:03;;;;;;;;;;;;;;;20.06;80.47;99543.27;1767283;80;20123;-79
2021/05/06 08:28:33;;;;;;;;;;;;;;;20.38;77.63;99542.23;1779827;80;20128;-77
2021/05/06 08:31:01;;;;;;;;;;;;;;;20.72;67.61;99546.95;1768116;80;20197;-74
2021/05/06 08:33:29;;;;;;;;;;;;;;;20.67;66.89;99555.92;1757690;80;20141;-73
2021/05/06 08:35:57;;;;;;;;;;;;;;;20.62;65.76;99551.72;1751326;81;20175;-77
2021/05/06 08:38:24;;;;;;;;;;;;;;;20.62;64.95;99557.20;1746400;81;20139;-76
2021/05/06 08:40:54;;;;;;;;;;;;;;;20.56;63.30;99553.52;1745428;81;20132;-77
2021/05/06 08:43:24;;;;;;;;;;;;;;;20.76;66.17;99543.98;1725500;82;20162;-76
2021/05/06 08:45:54;;;;;;;;;;;;;;;20.88;62.43;99554.34;1706972;83;20174;-77
2021/05/06 08:48:21;;;;;;;;;;;;;;;20.79;65.44;99559.42;1741945;82;20166;-79
2021/05/06 08:50:49;;;;;;;;;;;;;;;20.71;69.98;99551.59;1741200;81;20162;-78
2021/05/06 08:53:17;;;;;;;;;;;;;;;21.02;63.79;99557.03;1731307;82;20191;-79
2021/05/06 08:55:45;;;;;;;;;;;;;;;21.17;59.97;99557.78;1732138;81;20139;-77
2021/05/06 08:58:14;;;;;;;;;;;;;;;21.10;56.20;99564.01;1810134;79;20175;-75
2021/05/06 09:00:43;;;;;;;;;;;;;;;20.81;58.28;99561.92;1798603;78;20172;-74
2021/05/06 09:03:11;;;;;;;;;;;;;;;20.71;60.42;99568.06;1786472;79;20267;-78
2021/05/06 09:06:15;;;;;;;;;;;;;;;20.72;57.06;99579.36;1791350;79;20400;-79
2021/05/06 09:08:49;;;;;;;;;;;;;;;20.75;56.03;99569.77;1783622;79;20269;-75
2021/05/06 09:11:20;;;;;;;;;;;;;;;20.69;60.62;99563.37;1798622;79;20167;-75
2021/05/06 09:13:48;;;;;;;;;;;;;;;20.66;62.63;99559.73;1814262;79;20287;-74
2021/05/06 09:16:15;;;;;;;;;;;;;;;20.87;63.50;99555.41;1815335;78;20395;-75
2021/05/06 09:18:47;;;;;;;;;;;;;;;21.17;61.66;99546.79;1814308;79;20407;-75
2021/05/06 09:21:29;;;;;;;;;;;;;;;21.37;60.83;99544.89;1812774;79;20400;-75
2021/05/06 09:24:04;;;;;;;;;;;;;;;21.37;59.96;99533.89;1803493;79;20165;-79
2021/05/06 09:26:33;;;;;;;;;;;;;;;21.25;60.56;99537.30;1805158;79;20258;-72
2021/05/06 09:29:03;;;;;;;;;;;;;;;21.17;61.16;99533.59;1756161;81;20183;-75
2021/05/06 09:31:40;;;;;;;;;;;;;;;21.10;62.67;99531.02;1750396;81;20129;-80
2021/05/06 09:34:11;;;;;;;;;;;;;;;21.18;60.63;99531.97;1752003;81;20213;-78
2021/05/06 09:36:39;;;;;;;;;;;;;;;21.24;61.72;99526.00;1810554;78;20234;-75
2021/05/06 09:39:08;;;;;;;;;;;;;;;21.26;64.11;99518.88;1775512;80;20180;-74
2021/05/06 09:41:38;;;;;;;;;;;;;;;21.50;68.45;99518.13;1786670;79;20185;-77
2021/05/06 09:46:56;;;;;;;;;;;;;;;22.02;59.05;99512.11;1678781;85;20175;-79
2021/05/06 09:49:25;;;;;;;;;;;;;;;21.87;56.93;99528.45;1677611;85;20163;-75
2021/05/06 09:54:34;;;;;;;;;;;;;;;21.92;59.91;99514.22;1858269;76;20241;-75
2021/05/06 09:57:05;;;;;;;;;;;;;;;22.13;60.46;99503.40;1821524;77;20427;-78
2021/05/06 09:59:37;;;;;;;;;;;;;;;22.43;54.73;99504.25;1830992;77;20291;-75
2021/05/06 10:02:13;;;;;;;;;;;;;;;22.31;55.37;99508.58;1817580;78;20450;-78
2021/05/06 10:04:44;;;;;;;;;;;;;;;22.18;57.73;99504.83;1818260;78;20124;-78
2021/05/06 10:07:22;;;;;;;;;;;;;;;22.34;56.17;99491.51;1817586;78;20226;-77
2021/05/06 10:09:50;;;;;;;;;;;;;;;22.57;55.83;99507.41;1817581;79;20171;-75
2021/05/06 10:12:20;;;;;;;;;;;;;;;22.74;54.42;99503.14;1818099;79;20216;-77
2021/05/06 10:14:49;;;;;;;;;;;;;;;22.94;56.30;99494.98;1818429;79;20135;-76
2021/05/06 10:17:20;;;;;;;;;;;;;;;23.13;52.25;99493.22;1818495;78;20253;-73
2021/05/06 10:19:49;;;;;;;;;;;;;;;23.11;50.29;99484.39;1817812;79;20138;-74
2021/05/06 10:22:19;;;;;;;;;;;;;;;23.07;52.25;99492.89;1817477;79;20118;-69
2021/05/06 10:24:47;;;;;;;;;;;;;;;23.11;48.77;99487.14;1838068;77;20221;-73
2021/05/06 10:27:20;;;;;;;;;;;;;;;23.11;46.91;99481.63;1851696;78;20178;-74
2021/05/06 10:29:53;;;;;;;;;;;;;;;23.35;48.54;99479.80;1851053;78;20130;-72
2021/05/06 10:32:20;;;;;;;;;;;;;;;23.37;40.25;99483.94;1851638;78;20134;-75
2021/05/06 10:34:54;;;;;;;;;;;;;;;23.01;38.42;99484.29;1793624;78;20559;-75
2021/05/06 10:37:19;;;;;;;;;;;;;;;22.76;40.14;99488.55;1848065;78;20251;-72
2021/05/06 10:39:48;;;;;;;;;;;;;;;22.49;40.56;99479.81;1849475;78;20147;-76
2021/05/06 10:42:29;;;;;;;;;;;;;;;22.32;46.12;99472.22;1851371;77;20151;-74
2021/05/06 10:45:14;;;;;;;;;;;;;;;22.52;42.94;99475.16;1851061;78;20127;-74
2021/05/06 10:47:51;;;;;;;;;;;;;;;22.78;42.39;99464.86;1851383;77;20241;-74
2021/05/06 10:50:24;;;;;;;;;;;;;;;22.52;42.00;99461.38;1831260;77;20224;-76
2021/05/06 10:52:55;;;;;;;;;;;;;;;22.33;44.16;99472.52;1817624;79;20271;-74
2021/05/06 10:55:51;;;;;;;;;;;;;;;22.16;45.17;99475.36;1790154;79;20383;-76
2021/05/06 10:58:30;;;;;;;;;;;;;;;21.96;46.75;99464.44;1722873;83;20274;-76
2021/05/06 11:01:05;;;;;;;;;;;;;;;21.92;48.74;99468.81;1742909;82;20186;-74
2021/05/06 11:03:36;;;;;;;;;;;;;;;21.98;42.12;99468.31;1737478;82;20202;-75
2021/05/06 11:06:36;;;;;;;;;;;;;;;22.16;43.14;99472.60;1851755;77;20246;-73
2021/05/06 11:09:37;;;;;;;;;;;;;;;22.39;43.18;99465.95;1756521;81;20166;-71
2021/05/06 11:12:17;;;;;;;;;;;;;;;22.57;42.46;99455.06;1737656;81;20482;-72
2021/05/06 11:15:05;;;;;;;;;;;;;;;22.36;44.81;99460.95;1743498;81;20141;-72
2021/05/06 11:17:37;;;;;;;;;;;;;;;22.32;46.07;99444.69;1758309;81;20470;-73
2021/05/06 11:20:14;;;;;;;;;;;;;;;22.61;49.30;99447.95;1790018;80;20178;-74
2021/05/06 11:22:46;;;;;;;;;;;;;;;22.83;43.54;99452.48;1793527;80;20143;-75
2021/05/06 11:25:31;;;;;;;;;;;;;;;22.88;40.30;99453.90;1787191;80;20190;-75
2021/05/06 11:28:03;;;;;;;;;;;;;;;23.00;43.49;99442.12;1773794;80;20145;-75
2021/05/06 11:30:46;;;;;;;;;;;;;;;23.23;44.60;99445.02;1763074;81;20154;-75
2021/05/06 11:36:10;;;;;;;;;;;;;;;23.31;45.88;99429.86;1855803;76;20207;-76
2021/05/06 11:38:44;;;;;;;;;;;;;;;23.44;48.21;99441.79;1784376;80;20274;-76
2021/05/06 11:41:18;;;;;;;;;;;;;;;23.70;47.32;99425.28;1803718;79;20135;-72
2021/05/06 11:43:49;;;;;;;;;;;;;;;23.87;46.65;99426.47;1788859;79;20176;-74
2021/05/06 11:46:18;;;;;;;;;;;;;;;24.03;41.81;99434.22;1779787;79;20216;-74
2021/05/06 11:48:53;;;;;;;;;;;;;;;23.86;40.88;99437.22;1792028;79;20141;-75
2021/05/06 11:51:36;;;;;;;;;;;;;;;23.45;41.33;99426.05;1814514;79;20135;-75
2021/05/06 11:54:11;;;;;;;;;;;;;;;23.48;43.83;99432.42;1806575;78;20135;-73
2021/05/06 11:56:50;;;;;;;;;;;;;;;23.54;40.57;99420.84;1764205;81;20344;-74
2021/05/06 11:59:19;;;;;;;;;;;;;;;23.53;42.28;99425.50;1726093;81;20214;-73
2021/05/06 12:01:46;;;;;;;;;;;;;;;23.38;41.90;99415.83;1733915;82;20297;-73
2021/05/06 12:04:32;;;;;;;;;;;;;;;23.29;44.62;99416.34;1741547;82;20348;-74
2021/05/06 12:07:20;;;;;;;;;;;;;;;23.49;43.01;99414.19;1727397;82;20180;-72
2021/05/06 12:09:49;;;;;;;;;;;;;;;23.47;43.87;99410.88;1741525;82;20134;-72
2021/05/06 12:12:25;;;;;;;;;;;;;;;23.50;43.45;99398.48;1742289;82;20154;-72
2021/05/06 12:14:59;;;;;;;;;;;;;;;23.45;45.02;99402.05;1741236;82;20256;-74
2021/05/06 12:17:27;;;;;;;;;;;;;;;23.37;44.27;99401.19;1729977;82;20139;-73
2021/05/06 12:19:58;;;;;;;;;;;;;;;23.42;45.68;99401.20;1704219;82;20226;-77
2021/05/06 12:22:27;;;;;;;;;;;;;;;23.47;43.34;99403.16;1740519;82;20216;-75
2021/05/06 12:24:55;;;;;;;;;;;;;;;23.31;41.73;99403.66;1741867;82;20246;-73
2021/05/06 12:27:27;;;;;;;;;;;;;;;23.21;42.63;99396.16;1742094;82;20500;-72
2021/05/06 12:30:05;;;;;;;;;;;;;;;23.30;40.62;99395.95;1741438;82;20154;-74
2021/05/06 12:32:33;;;;;;;;;;;;;;;23.19;42.22;99397.55;1741658;82;20527;-72
2021/05/06 12:35:03;;;;;;;;;;;;;;;23.09;42.30;99396.97;1797641;79;20136;-72
2021/05/06 12:37:32;;;;;;;;;;;;;;;22.86;44.23;99396.28;1805283;79;20137;-71
2021/05/06 12:40:01;;;;;;;;;;;;;;;22.88;46.24;99390.50;1803572;78;20143;-74
2021/05/06 12:42:30;;;;;;;;;;;;;;;22.86;43.95;99404.55;1802354;79;20201;-70
2021/05/06 12:44:57;;;;;;;;;;;;;;;22.73;47.19;99393.99;1809984;79;20147;-72
2021/05/06 12:47:29;;;;;;;;;;;;;;;22.86;45.16;99395.43;1798576;79;20132;-73
2021/05/06 12:50:30;;;;;;;;;;;;;;;23.03;42.62;99380.91;1809066;79;20272;-71
2021/05/06 12:52:59;;;;;;;;;;;;;;;23.08;40.03;99393.37;1807420;79;20164;-74
2021/05/06 12:55:28;;;;;;;;;;;;;;;22.98;42.19;99386.95;1804351;78;20144;-72
2021/05/06 12:58:15;;;;;;;;;;;;;;;23.10;43.70;99391.16;1793204;78;20268;-76
2021/05/06 13:00:45;;;;;;;;;;;;;;;23.01;46.00;99380.91;1704071;83;20174;-74
2021/05/06 13:03:31;;;;;;;;;;;;;;;23.15;46.92;99371.06;1844296;77;20529;-73
2021/05/06 13:06:05;;;;;;;;;;;;;;;23.33;46.84;99374.44;1814856;79;20294;-75
2021/05/06 13:08:38;;;;;;;;;;;;;;;23.47;44.25;99377.77;1734493;81;20180;-71
2021/05/06 13:11:07;;;;;;;;;;;;;;;23.29;43.56;99370.02;1754379;81;20300;-71
2021/05/06 13:13:44;;;;;;;;;;;;;;;23.26;46.36;99367.23;1738966;81;20181;-75
2021/05/06 13:16:16;;;;;;;;;;;;;;;23.41;45.95;99359.56;1740618;81;20228;-71
2021/05/06 13:19:03;;;;;;;;;;;;;;;23.32;48.25;99358.45;1738392;81;20220;-78
2021/05/06 13:21:37;;;;;;;;;;;;;;;23.27;46.24;99371.66;1841558;77;20258;-78
2021/05/06 13:24:08;;;;;;;;;;;;;;;23.00;46.49;99353.05;1808018;79;20150;-76
2021/05/06 13:26:38;;;;;;;;;;;;;;;22.92;48.79;99362.12;1816226;79;20144;-78
2021/05/06 13:29:06;;;;;;;;;;;;;;;23.03;47.89;99351.95;1816873;79;20258;-75
2021/05/06 13:31:35;;;;;;;;;;;;;;;23.01;46.40;99360.23;1793605;79;20147;-72
2021/05/06 13:34:17;;;;;;;;;;;;;;;22.92;45.96;99357.98;1793332;80;20182;-76
2021/05/06 13:37:03;;;;;;;;;;;;;;;22.83;47.48;99351.33;1794250;80;20241;-75
2021/05/06 13:39:36;;;;;;;;;;;;;;;22.78;48.85;99354.63;1812731;79;20277;-79
2021/05/06 13:42:04;;;;;;;;;;;;;;;22.86;51.90;99345.30;1806468;79;20162;-78
2021/05/06 13:44:34;;;;;;;;;;;;;;;22.94;50.42;99349.45;1810320;79;20429;-78
2021/05/06 13:47:11;;;;;;;;;;;;;;;23.02;49.31;99353.08;1813516;79;20242;-80
2021/05/06 13:49:43;;;;;;;;;;;;;;;22.99;50.87;99343.14;1818297;79;20237;-80
2021/05/06 13:52:16;;;;;;;;;;;;;;;22.82;53.51;99348.84;1810079;79;20226;-79
2021/05/06 13:54:45;;;;;;;;;;;;;;;22.89;53.95;99350.80;1812065;79;20241;-79
2021/05/06 13:57:13;;;;;;;;;;;;;;;22.80;53.78;99354.62;1807139;79;20312;-79
2021/05/06 13:59:41;;;;;;;;;;;;;;;22.55;54.37;99355.33;1813200;79;20526;-77
2021/05/06 14:02:09;;;;;;;;;;;;;;;22.51;55.72;99356.96;1812173;79;20191;-77
2021/05/06 14:04:40;;;;;;;;;;;;;;;22.49;53.41;99351.72;1801909;78;20804;-76
2021/05/06 14:07:07;;;;;;;;;;;;;;;22.33;57.43;99352.17;1809307;79;20458;-75
2021/05/06 14:09:36;;;;;;;;;;;;;;;22.25;57.77;99350.42;1810045;79;20191;-75
2021/05/06 14:12:04;;;;;;;;;;;;;;;22.13;58.40;99354.73;1808188;79;20147;-76
2021/05/06 14:14:32;;;;;;;;;;;;;;;21.89;60.03;99354.29;1811796;79;20250;-76
2021/05/06 14:17:01;;;;;;;;;;;;;;;21.65;62.80;99358.73;1803289;79;20503;-76
2021/05/06 14:19:29;;;;;;;;;;;;;;;21.54;61.85;99361.11;1804248;79;20466;-76
2021/05/06 14:21:57;;;;;;;;;;;;;;;21.40;65.99;99352.41;1796130;79;20132;-76
2021/05/06 14:24:25;;;;;;;;;;;;;;;21.23;69.34;99358.02;1797983;79;20403;-75
2021/05/06 14:26:54;;;;;;;;;;;;;;;21.18;71.14;99360.16;1803745;79;20249;-78
2021/05/06 14:29:22;;;;;;;;;;;;;;;21.09;71.68;99367.20;1803369;79;20154;-76
2021/05/06 14:31:50;;;;;;;;;;;;;;;20.94;73.06;99368.38;1804060;79;20178;-75
2021/05/06 14:34:18;;;;;;;;;;;;;;;20.82;74.13;99360.25;1799128;79;20147;-76
2021/05/06 14:36:45;;;;;;;;;;;;;;;20.66;75.36;99358.70;1805946;79;20219;-75
2021/05/06 14:39:14;;;;;;;;;;;;;;;20.54;77.18;99359.84;1803107;79;20146;-76
2021/05/06 14:41:42;;;;;;;;;;;;;;;20.42;78.24;99352.56;1812170;79;20264;-76
2021/05/06 14:44:10;;;;;;;;;;;;;;;20.31;80.10;99361.74;1791225;79;20217;-75
2021/05/06 14:46:38;;;;;;;;;;;;;;;20.26;79.87;99364.41;1788503;79;20142;-77
2021/05/06 14:49:06;;;;;;;;;;;;;;;20.22;79.77;99370.09;1790742;79;20149;-75
2021/05/06 14:51:34;;;;;;;;;;;;;;;20.20;81.78;99365.39;1804003;79;20140;-74
2021/05/06 14:54:01;;;;;;;;;;;;;;;20.20;82.79;99360.76;1817613;79;20148;-73
2021/05/06 14:56:30;;;;;;;;;;;;;;;20.14;83.76;99363.12;1817801;79;20140;-74
2021/05/06 14:58:57;;;;;;;;;;;;;;;20.06;86.33;99352.03;1821415;78;20213;-74
2021/05/06 15:01:25;;;;;;;;;;;;;;;20.06;87.80;99360.78;1819398;79;20118;-72
2021/05/06 15:03:53;;;;;;;;;;;;;;;20.05;87.00;99359.95;1819390;79;20145;-75
2021/05/06 15:06:21;;;;;;;;;;;;;;;20.03;88.18;99362.67;1817661;79;20149;-75
2021/05/06 15:08:50;;;;;;;;;;;;;;;19.97;89.66;99359.54;1792693;79;20182;-75
2021/05/06 15:11:19;;;;;;;;;;;;;;;19.91;90.70;99360.00;1788009;80;20146;-78
2021/05/06 15:13:47;;;;;;;;;;;;;;;19.87;91.26;99359.67;1806844;79;20275;-72
2021/05/06 15:16:15;;;;;;;;;;;;;;;19.83;88.29;99360.41;1819801;79;20422;-75
2021/05/06 15:18:43;;;;;;;;;;;;;;;19.77;87.54;99362.78;1814054;79;20134;-71
2021/05/06 15:21:10;;;;;;;;;;;;;;;19.66;89.42;99368.60;1782332;80;20147;-72
2021/05/06 15:23:39;;;;;;;;;;;;;;;19.63;92.33;99369.09;1790559;78;20151;-73
2021/05/06 15:26:06;;;;;;;;;;;;;;;19.54;90.03;99362.63;1794066;79;20245;-74
2021/05/06 15:28:34;;;;;;;;;;;;;;;19.46;88.89;99365.78;1794581;79;20144;-71
2021/05/06 15:31:04;;;;;;;;;;;;;;;19.38;88.22;99364.80;1797208;79;20301;-74
2021/05/06 15:33:31;;;;;;;;;;;;;;;19.31;89.65;99366.86;1797597;79;20245;-72
2021/05/06 15:36:00;;;;;;;;;;;;;;;19.27;88.68;99363.77;1793439;79;20210;-71
2021/05/06 15:38:27;;;;;;;;;;;;;;;19.24;83.04;99369.73;1778922;81;20130;-69
2021/05/06 15:40:57;;;;;;;;;;;;;;;19.14;82.30;99368.16;1778718;81;20523;-73
2021/05/06 15:43:24;;;;;;;;;;;;;;;19.06;81.06;99364.45;1781549;79;20229;-73
2021/05/06 15:45:55;;;;;;;;;;;;;;;18.99;81.32;99369.24;1782954;80;20141;-70
2021/05/06 15:48:23;;;;;;;;;;;;;;;18.92;80.94;99371.56;1784432;79;20150;-79
2021/05/06 15:50:52;;;;;;;;;;;;;;;18.89;81.25;99369.33;1784342;80;20141;-71
2021/05/06 15:53:21;;;;;;;;;;;;;;;18.89;81.67;99372.07;1784634;80;20442;-73
2021/05/06 15:55:48;;;;;;;;;;;;;;;18.88;81.72;99373.14;1780493;79;20322;-78
2021/05/06 15:58:16;;;;;;;;;;;;;;;18.84;81.46;99373.84;1778843;81;20182;-74
2021/05/06 16:00:44;;;;;;;;;;;;;;;18.78;82.36;99373.70;1779773;79;20227;-75
2021/05/06 16:03:15;;;;;;;;;;;;;;;18.76;84.82;99373.66;1779404;81;20439;-78
2021/05/06 16:05:47;;;;;;;;;;;;;;;18.76;84.76;99379.14;1779173;81;20147;-73
2021/05/06 16:08:11;;;;;;;;;;;;;;;18.70;82.41;99382.86;1776219;79;20171;-74
2021/05/06 16:10:40;;;;;;;;;;;;;;;18.59;83.46;99381.25;1778820;81;20147;-74
2021/05/06 16:13:08;;;;;;;;;;;;;;;18.52;84.47;99386.02;1778875;81;20222;-74
2021/05/06 16:15:36;;;;;;;;;;;;;;;18.46;84.97;99381.48;1779022;81;20143;-74
2021/05/06 16:18:04;;;;;;;;;;;;;;;18.41;86.02;99384.11;1809795;79;20422;-73
2021/05/06 16:20:39;;;;;;;;;;;;;;;18.38;87.13;99391.45;1783714;79;20159;-73
2021/05/06 16:23:01;;;;;;;;;;;;;;;18.30;87.53;99393.16;1787410;80;20153;-75
2021/05/06 16:25:29;;;;;;;;;;;;;;;18.24;88.13;99403.16;1787553;80;20182;-74
2021/05/06 16:27:57;;;;;;;;;;;;;;;18.17;88.61;99396.97;1787300;80;20146;-74
2021/05/06 16:30:26;;;;;;;;;;;;;;;18.11;90.72;99402.83;1787602;79;20159;-74
2021/05/06 16:32:55;;;;;;;;;;;;;;;18.06;92.78;99406.83;1787411;80;20146;-74
2021/05/06 16:35:28;;;;;;;;;;;;;;;17.98;94.63;99406.62;1787384;80;20154;-75
2021/05/06 16:40:30;;;;;;;;;;;;;;;17.84;97.77;99406.50;1787387;80;20190;-73
2021/05/06 16:45:39;;;;;;;;;;;;;;;17.73;99.61;99406.77;1787399;79;20162;-73
2021/05/06 16:48:11;;;;;;;;;;;;;;;17.64;100.00;99414.47;1787655;80;20474;-77
2021/05/06 16:50:40;;;;;;;;;;;;;;;17.57;100.00;99414.28;1787588;80;20118;-74
2021/05/06 16:53:09;;;;;;;;;;;;;;;17.49;100.00;99415.41;1787410;80;20181;-74
2021/05/06 16:55:37;;;;;;;;;;;;;;;17.41;100.00;99419.86;1787154;79;20213;-74
2021/05/06 16:58:05;;;;;;;;;;;;;;;17.32;100.00;99419.88;1787691;80;20404;-74
2021/05/06 17:00:33;;;;;;;;;;;;;;;17.25;100.00;99413.13;1787468;80;20142;-74
2021/05/06 17:03:02;;;;;;;;;;;;;;;17.20;100.00;99419.81;1787336;80;20155;-74
2021/05/06 17:05:32;;;;;;;;;;;;;;;17.11;100.00;99410.27;1787293;80;20135;-75
2021/05/06 17:08:01;;;;;;;;;;;;;;;17.04;100.00;99418.00;1805488;79;20147;-74
2021/05/06 17:10:29;;;;;;;;;;;;;;;16.99;100.00;99419.75;1819420;79;20132;-74
2021/05/06 17:12:58;;;;;;;;;;;;;;;16.94;100.00;99416.33;1819780;79;20243;-74
2021/05/06 17:15:26;;;;;;;;;;;;;;;16.89;100.00;99417.54;1819712;79;20143;-74
2021/05/06 17:17:53;;;;;;;;;;;;;;;16.83;100.00;99418.43;1818142;79;20149;-75
2021/05/06 17:20:21;;;;;;;;;;;;;;;16.77;100.00;99417.45;1792999;79;20126;-74